sensor_id;sensor_type;location;lat;lon;timestamp;P1;durP1;ratioP1;P2;durP2;ratioP2
49392;SDS011;35268;42.642;23.308;2024-01-15T00:00:17;55.72;;;19.63;;
49392;SDS011;35268;42.642;23.308;2024-01-15T00:02:43;59.13;;;20.60;;
49392;SDS011;35268;42.642;23.308;2024-01-15T00:05:09;56.22;;;20.65;;
49392;SDS011;35268;42.642;23.308;2024-01-15T00:07:35;60.90;;;21.58;;
49392;SDS011;35268;42.642;23.308;2024-01-15T00:10:00;43.10;;;18.85;;
49392;SDS011;35268;42.642;23.308;2024-01-15T00:12:26;43.78;;;17.23;;
49392;SDS011;35268;42.642;23.308;2024-01-15T00:14:52;43.42;;;17.98;;
49392;SDS011;35268;42.642;23.308;2024-01-15T00:17:17;42.40;;;17.88;;
49392;SDS011;35268;42.642;23.308;2024-01-15T00:19:42;43.47;;;17.40;;
49392;SDS011;35268;42.642;23.308;2024-01-15T00:22:08;48.92;;;18.40;;
49392;SDS011;35268;42.642;23.308;2024-01-15T00:24:33;46.78;;;18.42;;
49392;SDS011;35268;42.642;23.308;2024-01-15T00:26:59;40.75;;;18.58;;
49392;SDS011;35268;42.642;23.308;2024-01-15T00:29:24;43.97;;;18.00;;
49392;SDS011;35268;42.642;23.308;2024-01-15T00:31:50;45.83;;;18.58;;
49392;SDS011;35268;42.642;23.308;2024-01-15T00:34:15;46.50;;;16.63;;
49392;SDS011;35268;42.642;23.308;2024-01-15T00:36:40;48.17;;;16.88;;
49392;SDS011;35268;42.642;23.308;2024-01-15T00:39:06;45.25;;;17.10;;
49392;SDS011;35268;42.642;23.308;2024-01-15T00:41:31;51.88;;;18.27;;
49392;SDS011;35268;42.642;23.308;2024-01-15T00:43:57;44.25;;;16.42;;
49392;SDS011;35268;42.642;23.308;2024-01-15T00:46:22;46.33;;;15.38;;
49392;SDS011;35268;42.642;23.308;2024-01-15T00:48:48;43.20;;;15.57;;
49392;SDS011;35268;42.642;23.308;2024-01-15T00:51:13;36.90;;;15.30;;
49392;SDS011;35268;42.642;23.308;2024-01-15T00:53:39;39.65;;;14.95;;
49392;SDS011;35268;42.642;23.308;2024-01-15T00:56:05;38.72;;;15.63;;
49392;SDS011;35268;42.642;23.308;2024-01-15T00:58:30;35.28;;;14.43;;
49392;SDS011;35268;42.642;23.308;2024-01-15T01:00:56;48.30;;;15.63;;
49392;SDS011;35268;42.642;23.308;2024-01-15T01:03:21;40.92;;;15.57;;
49392;SDS011;35268;42.642;23.308;2024-01-15T01:05:48;41.00;;;15.25;;
49392;SDS011;35268;42.642;23.308;2024-01-15T01:08:14;45.70;;;16.20;;
49392;SDS011;35268;42.642;23.308;2024-01-15T01:10:40;39.85;;;15.75;;
49392;SDS011;35268;42.642;23.308;2024-01-15T01:13:07;40.28;;;16.52;;
49392;SDS011;35268;42.642;23.308;2024-01-15T01:15:33;43.22;;;15.05;;
49392;SDS011;35268;42.642;23.308;2024-01-15T01:17:59;44.58;;;16.13;;
49392;SDS011;35268;42.642;23.308;2024-01-15T01:20:24;43.67;;;16.77;;
49392;SDS011;35268;42.642;23.308;2024-01-15T01:22:50;46.10;;;17.55;;
49392;SDS011;35268;42.642;23.308;2024-01-15T01:25:15;60.35;;;18.75;;
49392;SDS011;35268;42.642;23.308;2024-01-15T01:27:41;56.45;;;18.58;;
49392;SDS011;35268;42.642;23.308;2024-01-15T01:30:06;51.70;;;18.38;;
49392;SDS011;35268;42.642;23.308;2024-01-15T01:32:32;50.88;;;18.58;;
49392;SDS011;35268;42.642;23.308;2024-01-15T01:34:57;45.72;;;16.33;;
49392;SDS011;35268;42.642;23.308;2024-01-15T01:37:23;40.28;;;16.02;;
49392;SDS011;35268;42.642;23.308;2024-01-15T01:39:48;39.33;;;15.13;;
49392;SDS011;35268;42.642;23.308;2024-01-15T01:42:14;44.10;;;14.55;;
49392;SDS011;35268;42.642;23.308;2024-01-15T01:44:39;42.20;;;15.30;;
49392;SDS011;35268;42.642;23.308;2024-01-15T01:47:05;43.10;;;17.08;;
49392;SDS011;35268;42.642;23.308;2024-01-15T01:49:30;44.33;;;16.48;;
49392;SDS011;35268;42.642;23.308;2024-01-15T01:51:57;42.17;;;15.50;;
49392;SDS011;35268;42.642;23.308;2024-01-15T01:54:29;43.72;;;16.23;;
49392;SDS011;35268;42.642;23.308;2024-01-15T01:56:56;38.08;;;15.63;;
49392;SDS011;35268;42.642;23.308;2024-01-15T01:59:23;35.47;;;13.70;;
49392;SDS011;35268;42.642;23.308;2024-01-15T02:01:50;40.40;;;13.55;;
49392;SDS011;35268;42.642;23.308;2024-01-15T02:04:17;37.67;;;13.50;;
49392;SDS011;35268;42.642;23.308;2024-01-15T02:06:43;32.45;;;13.57;;
49392;SDS011;35268;42.642;23.308;2024-01-15T02:09:08;37.17;;;13.10;;
49392;SDS011;35268;42.642;23.308;2024-01-15T02:11:35;35.92;;;13.68;;
49392;SDS011;35268;42.642;23.308;2024-01-15T02:14:01;36.38;;;14.13;;
49392;SDS011;35268;42.642;23.308;2024-01-15T02:16:27;29.23;;;12.75;;
49392;SDS011;35268;42.642;23.308;2024-01-15T02:18:52;28.55;;;13.23;;
49392;SDS011;35268;42.642;23.308;2024-01-15T02:21:18;29.98;;;12.32;;
49392;SDS011;35268;42.642;23.308;2024-01-15T02:23:43;34.05;;;12.95;;
49392;SDS011;35268;42.642;23.308;2024-01-15T02:26:09;32.35;;;13.77;;
49392;SDS011;35268;42.642;23.308;2024-01-15T02:28:35;34.58;;;13.00;;
49392;SDS011;35268;42.642;23.308;2024-01-15T02:31:00;32.13;;;13.93;;
49392;SDS011;35268;42.642;23.308;2024-01-15T02:33:26;32.67;;;13.52;;
49392;SDS011;35268;42.642;23.308;2024-01-15T02:35:51;33.92;;;14.63;;
49392;SDS011;35268;42.642;23.308;2024-01-15T02:38:17;35.90;;;15.45;;
49392;SDS011;35268;42.642;23.308;2024-01-15T02:40:43;36.67;;;13.70;;
49392;SDS011;35268;42.642;23.308;2024-01-15T02:43:09;36.00;;;14.05;;
49392;SDS011;35268;42.642;23.308;2024-01-15T02:45:34;30.17;;;11.82;;
49392;SDS011;35268;42.642;23.308;2024-01-15T02:48:00;36.72;;;14.60;;
49392;SDS011;35268;42.642;23.308;2024-01-15T02:50:25;32.83;;;12.88;;
49392;SDS011;35268;42.642;23.308;2024-01-15T02:52:51;25.83;;;11.32;;
49392;SDS011;35268;42.642;23.308;2024-01-15T02:55:16;26.50;;;11.98;;
49392;SDS011;35268;42.642;23.308;2024-01-15T02:57:42;33.60;;;13.30;;
49392;SDS011;35268;42.642;23.308;2024-01-15T03:00:07;32.33;;;13.07;;
49392;SDS011;35268;42.642;23.308;2024-01-15T03:02:36;36.88;;;12.57;;
49392;SDS011;35268;42.642;23.308;2024-01-15T03:05:04;26.33;;;11.17;;
49392;SDS011;35268;42.642;23.308;2024-01-15T03:07:31;29.38;;;13.25;;
49392;SDS011;35268;42.642;23.308;2024-01-15T03:09:56;37.17;;;13.00;;
49392;SDS011;35268;42.642;23.308;2024-01-15T03:12:22;42.67;;;14.38;;
49392;SDS011;35268;42.642;23.308;2024-01-15T03:14:47;44.15;;;17.80;;
49392;SDS011;35268;42.642;23.308;2024-01-15T03:17:13;34.90;;;15.13;;
49392;SDS011;35268;42.642;23.308;2024-01-15T03:19:38;32.47;;;12.73;;
49392;SDS011;35268;42.642;23.308;2024-01-15T03:22:03;34.50;;;12.35;;
49392;SDS011;35268;42.642;23.308;2024-01-15T03:24:29;26.17;;;11.07;;
49392;SDS011;35268;42.642;23.308;2024-01-15T03:26:56;25.02;;;10.52;;
49392;SDS011;35268;42.642;23.308;2024-01-15T03:29:21;35.45;;;11.77;;
49392;SDS011;35268;42.642;23.308;2024-01-15T03:31:47;32.85;;;11.77;;
49392;SDS011;35268;42.642;23.308;2024-01-15T03:34:12;26.00;;;11.32;;
49392;SDS011;35268;42.642;23.308;2024-01-15T03:36:37;35.05;;;13.27;;
49392;SDS011;35268;42.642;23.308;2024-01-15T03:39:03;29.20;;;12.02;;
49392;SDS011;35268;42.642;23.308;2024-01-15T03:41:28;26.27;;;10.32;;
49392;SDS011;35268;42.642;23.308;2024-01-15T03:43:54;26.63;;;11.35;;
49392;SDS011;35268;42.642;23.308;2024-01-15T03:46:19;39.67;;;12.52;;
49392;SDS011;35268;42.642;23.308;2024-01-15T03:48:44;29.00;;;11.75;;
49392;SDS011;35268;42.642;23.308;2024-01-15T03:51:10;31.15;;;11.93;;
49392;SDS011;35268;42.642;23.308;2024-01-15T03:53:35;25.30;;;10.15;;
49392;SDS011;35268;42.642;23.308;2024-01-15T03:56:01;27.52;;;9.35;;
49392;SDS011;35268;42.642;23.308;2024-01-15T03:58:29;29.45;;;11.88;;
49392;SDS011;35268;42.642;23.308;2024-01-15T04:00:55;24.33;;;10.35;;
49392;SDS011;35268;42.642;23.308;2024-01-15T04:03:20;32.20;;;12.15;;
49392;SDS011;35268;42.642;23.308;2024-01-15T04:05:45;30.17;;;10.93;;
49392;SDS011;35268;42.642;23.308;2024-01-15T04:08:11;30.23;;;12.55;;
49392;SDS011;35268;42.642;23.308;2024-01-15T04:10:36;54.65;;;16.02;;
49392;SDS011;35268;42.642;23.308;2024-01-15T04:13:02;52.60;;;16.17;;
49392;SDS011;35268;42.642;23.308;2024-01-15T04:15:28;48.13;;;15.68;;
49392;SDS011;35268;42.642;23.308;2024-01-15T04:17:54;42.65;;;14.23;;
49392;SDS011;35268;42.642;23.308;2024-01-15T04:20:20;40.50;;;13.18;;
49392;SDS011;35268;42.642;23.308;2024-01-15T04:22:46;40.13;;;13.35;;
49392;SDS011;35268;42.642;23.308;2024-01-15T04:25:11;38.42;;;12.98;;
49392;SDS011;35268;42.642;23.308;2024-01-15T04:27:36;35.65;;;12.65;;
49392;SDS011;35268;42.642;23.308;2024-01-15T04:30:02;35.45;;;13.48;;
49392;SDS011;35268;42.642;23.308;2024-01-15T04:32:27;31.17;;;13.13;;
49392;SDS011;35268;42.642;23.308;2024-01-15T04:34:53;34.17;;;14.07;;
49392;SDS011;35268;42.642;23.308;2024-01-15T04:37:18;27.35;;;12.10;;
49392;SDS011;35268;42.642;23.308;2024-01-15T04:39:44;30.20;;;12.45;;
49392;SDS011;35268;42.642;23.308;2024-01-15T04:42:09;31.08;;;12.88;;
49392;SDS011;35268;42.642;23.308;2024-01-15T04:44:35;35.42;;;11.75;;
49392;SDS011;35268;42.642;23.308;2024-01-15T04:47:00;28.13;;;10.68;;
49392;SDS011;35268;42.642;23.308;2024-01-15T04:49:26;37.08;;;13.35;;
49392;SDS011;35268;42.642;23.308;2024-01-15T04:51:52;33.08;;;11.85;;
49392;SDS011;35268;42.642;23.308;2024-01-15T04:54:18;29.95;;;12.13;;
49392;SDS011;35268;42.642;23.308;2024-01-15T04:56:44;27.83;;;10.23;;
49392;SDS011;35268;42.642;23.308;2024-01-15T04:59:10;26.25;;;10.93;;
49392;SDS011;35268;42.642;23.308;2024-01-15T05:01:35;35.38;;;12.02;;
49392;SDS011;35268;42.642;23.308;2024-01-15T05:04:01;26.35;;;10.93;;
49392;SDS011;35268;42.642;23.308;2024-01-15T05:06:26;29.90;;;12.30;;
49392;SDS011;35268;42.642;23.308;2024-01-15T05:08:52;35.13;;;12.93;;
49392;SDS011;35268;42.642;23.308;2024-01-15T05:11:17;37.92;;;12.38;;
49392;SDS011;35268;42.642;23.308;2024-01-15T05:13:43;32.90;;;13.13;;
49392;SDS011;35268;42.642;23.308;2024-01-15T05:16:08;32.33;;;12.77;;
49392;SDS011;35268;42.642;23.308;2024-01-15T05:18:34;29.15;;;13.05;;
49392;SDS011;35268;42.642;23.308;2024-01-15T05:20:59;32.72;;;13.95;;
49392;SDS011;35268;42.642;23.308;2024-01-15T05:23:24;38.03;;;14.07;;
49392;SDS011;35268;42.642;23.308;2024-01-15T05:25:50;30.10;;;12.77;;
49392;SDS011;35268;42.642;23.308;2024-01-15T05:28:15;30.77;;;14.45;;
49392;SDS011;35268;42.642;23.308;2024-01-15T05:30:42;38.33;;;14.88;;
49392;SDS011;35268;42.642;23.308;2024-01-15T05:33:07;33.92;;;14.50;;
49392;SDS011;35268;42.642;23.308;2024-01-15T05:35:33;37.72;;;16.23;;
49392;SDS011;35268;42.642;23.308;2024-01-15T05:37:58;31.38;;;13.90;;
49392;SDS011;35268;42.642;23.308;2024-01-15T05:40:24;31.52;;;14.77;;
49392;SDS011;35268;42.642;23.308;2024-01-15T05:42:49;39.10;;;15.18;;
49392;SDS011;35268;42.642;23.308;2024-01-15T05:45:15;36.75;;;13.55;;
49392;SDS011;35268;42.642;23.308;2024-01-15T05:47:41;31.60;;;13.40;;
49392;SDS011;35268;42.642;23.308;2024-01-15T05:50:06;44.85;;;16.17;;
49392;SDS011;35268;42.642;23.308;2024-01-15T05:52:32;43.38;;;14.35;;
49392;SDS011;35268;42.642;23.308;2024-01-15T05:54:57;33.63;;;14.25;;
49392;SDS011;35268;42.642;23.308;2024-01-15T05:57:23;34.53;;;14.07;;
49392;SDS011;35268;42.642;23.308;2024-01-15T05:59:48;27.35;;;12.55;;
49392;SDS011;35268;42.642;23.308;2024-01-15T06:02:13;30.75;;;12.88;;
49392;SDS011;35268;42.642;23.308;2024-01-15T06:04:39;25.92;;;12.75;;
49392;SDS011;35268;42.642;23.308;2024-01-15T06:07:04;32.45;;;13.60;;
49392;SDS011;35268;42.642;23.308;2024-01-15T06:09:30;29.90;;;14.30;;
49392;SDS011;35268;42.642;23.308;2024-01-15T06:11:56;41.28;;;15.32;;
49392;SDS011;35268;42.642;23.308;2024-01-15T06:14:22;38.72;;;15.55;;
49392;SDS011;35268;42.642;23.308;2024-01-15T06:16:47;36.25;;;16.73;;
49392;SDS011;35268;42.642;23.308;2024-01-15T06:19:12;37.38;;;14.02;;
49392;SDS011;35268;42.642;23.308;2024-01-15T06:21:38;35.85;;;13.88;;
49392;SDS011;35268;42.642;23.308;2024-01-15T06:24:03;34.80;;;13.68;;
49392;SDS011;35268;42.642;23.308;2024-01-15T06:26:29;34.70;;;13.50;;
49392;SDS011;35268;42.642;23.308;2024-01-15T06:28:54;37.05;;;14.30;;
49392;SDS011;35268;42.642;23.308;2024-01-15T06:31:20;37.38;;;15.52;;
49392;SDS011;35268;42.642;23.308;2024-01-15T06:33:46;41.50;;;16.02;;
49392;SDS011;35268;42.642;23.308;2024-01-15T06:36:13;50.92;;;20.83;;
49392;SDS011;35268;42.642;23.308;2024-01-15T06:38:39;45.35;;;19.33;;
49392;SDS011;35268;42.642;23.308;2024-01-15T06:41:04;42.83;;;17.42;;
49392;SDS011;35268;42.642;23.308;2024-01-15T06:43:30;44.65;;;17.65;;
49392;SDS011;35268;42.642;23.308;2024-01-15T06:45:55;38.05;;;16.67;;
49392;SDS011;35268;42.642;23.308;2024-01-15T06:48:20;53.63;;;20.35;;
49392;SDS011;35268;42.642;23.308;2024-01-15T06:50:46;48.15;;;19.67;;
49392;SDS011;35268;42.642;23.308;2024-01-15T06:53:11;52.65;;;20.63;;
49392;SDS011;35268;42.642;23.308;2024-01-15T06:55:38;40.20;;;17.15;;
49392;SDS011;35268;42.642;23.308;2024-01-15T06:58:04;41.80;;;19.42;;
49392;SDS011;35268;42.642;23.308;2024-01-15T07:00:29;50.20;;;21.35;;
49392;SDS011;35268;42.642;23.308;2024-01-15T07:02:55;52.65;;;21.40;;
49392;SDS011;35268;42.642;23.308;2024-01-15T07:05:21;48.42;;;21.17;;
49392;SDS011;35268;42.642;23.308;2024-01-15T07:07:46;66.30;;;23.52;;
49392;SDS011;35268;42.642;23.308;2024-01-15T07:10:12;50.53;;;20.60;;
49392;SDS011;35268;42.642;23.308;2024-01-15T07:12:38;47.88;;;20.58;;
49392;SDS011;35268;42.642;23.308;2024-01-15T07:15:03;44.53;;;19.67;;
49392;SDS011;35268;42.642;23.308;2024-01-15T07:17:31;45.45;;;20.15;;
49392;SDS011;35268;42.642;23.308;2024-01-15T07:19:57;47.28;;;19.25;;
49392;SDS011;35268;42.642;23.308;2024-01-15T07:22:22;47.17;;;19.75;;
49392;SDS011;35268;42.642;23.308;2024-01-15T07:24:47;51.78;;;20.02;;
49392;SDS011;35268;42.642;23.308;2024-01-15T07:27:13;50.47;;;19.15;;
49392;SDS011;35268;42.642;23.308;2024-01-15T07:29:38;44.60;;;18.30;;
49392;SDS011;35268;42.642;23.308;2024-01-15T07:32:04;49.00;;;19.13;;
49392;SDS011;35268;42.642;23.308;2024-01-15T07:34:30;45.85;;;18.17;;
49392;SDS011;35268;42.642;23.308;2024-01-15T07:36:56;46.03;;;18.42;;
49392;SDS011;35268;42.642;23.308;2024-01-15T07:39:22;54.30;;;18.92;;
49392;SDS011;35268;42.642;23.308;2024-01-15T07:41:49;46.30;;;20.27;;
49392;SDS011;35268;42.642;23.308;2024-01-15T07:44:15;50.70;;;19.27;;
49392;SDS011;35268;42.642;23.308;2024-01-15T07:46:43;57.15;;;21.83;;
49392;SDS011;35268;42.642;23.308;2024-01-15T07:49:10;53.85;;;26.73;;
49392;SDS011;35268;42.642;23.308;2024-01-15T07:51:36;56.20;;;24.08;;
49392;SDS011;35268;42.642;23.308;2024-01-15T07:54:01;50.17;;;22.27;;
49392;SDS011;35268;42.642;23.308;2024-01-15T07:56:27;52.95;;;22.17;;
49392;SDS011;35268;42.642;23.308;2024-01-15T07:58:52;51.13;;;21.77;;
49392;SDS011;35268;42.642;23.308;2024-01-15T08:01:18;55.08;;;21.75;;
49392;SDS011;35268;42.642;23.308;2024-01-15T08:03:43;55.63;;;23.08;;
49392;SDS011;35268;42.642;23.308;2024-01-15T08:06:09;66.60;;;25.23;;
49392;SDS011;35268;42.642;23.308;2024-01-15T08:08:35;63.92;;;22.85;;
49392;SDS011;35268;42.642;23.308;2024-01-15T08:11:00;56.97;;;22.33;;
49392;SDS011;35268;42.642;23.308;2024-01-15T08:13:26;50.55;;;19.35;;
49392;SDS011;35268;42.642;23.308;2024-01-15T08:15:52;50.65;;;20.23;;
49392;SDS011;35268;42.642;23.308;2024-01-15T08:18:17;45.33;;;18.00;;
49392;SDS011;35268;42.642;23.308;2024-01-15T08:20:42;44.72;;;17.98;;
49392;SDS011;35268;42.642;23.308;2024-01-15T08:23:08;47.22;;;18.55;;
49392;SDS011;35268;42.642;23.308;2024-01-15T08:25:34;45.30;;;18.77;;
49392;SDS011;35268;42.642;23.308;2024-01-15T08:28:00;62.05;;;25.70;;
49392;SDS011;35268;42.642;23.308;2024-01-15T08:30:25;67.15;;;26.40;;
49392;SDS011;35268;42.642;23.308;2024-01-15T08:32:53;81.05;;;26.88;;
49392;SDS011;35268;42.642;23.308;2024-01-15T08:35:19;59.80;;;24.92;;
49392;SDS011;35268;42.642;23.308;2024-01-15T08:37:48;48.05;;;22.92;;
49392;SDS011;35268;42.642;23.308;2024-01-15T08:40:14;54.28;;;24.55;;
49392;SDS011;35268;42.642;23.308;2024-01-15T08:42:40;65.40;;;25.48;;
49392;SDS011;35268;42.642;23.308;2024-01-15T08:45:06;58.47;;;25.13;;
49392;SDS011;35268;42.642;23.308;2024-01-15T08:47:32;64.63;;;24.23;;
49392;SDS011;35268;42.642;23.308;2024-01-15T08:49:57;51.55;;;23.83;;
49392;SDS011;35268;42.642;23.308;2024-01-15T08:52:24;52.08;;;22.05;;
49392;SDS011;35268;42.642;23.308;2024-01-15T08:54:49;55.10;;;23.63;;
49392;SDS011;35268;42.642;23.308;2024-01-15T08:57:15;56.10;;;21.70;;
49392;SDS011;35268;42.642;23.308;2024-01-15T08:59:40;42.63;;;17.05;;
49392;SDS011;35268;42.642;23.308;2024-01-15T09:02:06;39.95;;;17.67;;
49392;SDS011;35268;42.642;23.308;2024-01-15T09:04:32;53.15;;;17.42;;
49392;SDS011;35268;42.642;23.308;2024-01-15T09:06:58;44.08;;;16.77;;
49392;SDS011;35268;42.642;23.308;2024-01-15T09:09:23;46.60;;;17.10;;
49392;SDS011;35268;42.642;23.308;2024-01-15T09:11:49;43.30;;;18.45;;
49392;SDS011;35268;42.642;23.308;2024-01-15T09:14:15;56.17;;;18.13;;
49392;SDS011;35268;42.642;23.308;2024-01-15T09:16:40;42.90;;;16.52;;
49392;SDS011;35268;42.642;23.308;2024-01-15T09:19:06;39.58;;;18.17;;
49392;SDS011;35268;42.642;23.308;2024-01-15T09:21:31;47.85;;;18.83;;
49392;SDS011;35268;42.642;23.308;2024-01-15T09:23:57;43.58;;;19.27;;
49392;SDS011;35268;42.642;23.308;2024-01-15T09:26:23;50.92;;;19.98;;
49392;SDS011;35268;42.642;23.308;2024-01-15T09:28:49;50.58;;;21.08;;
49392;SDS011;35268;42.642;23.308;2024-01-15T09:31:14;58.58;;;21.65;;
49392;SDS011;35268;42.642;23.308;2024-01-15T09:33:42;72.80;;;29.98;;
49392;SDS011;35268;42.642;23.308;2024-01-15T09:36:08;108.97;;;39.38;;
49392;SDS011;35268;42.642;23.308;2024-01-15T09:38:33;101.70;;;40.63;;
49392;SDS011;35268;42.642;23.308;2024-01-15T09:40:59;110.35;;;43.05;;
49392;SDS011;35268;42.642;23.308;2024-01-15T09:43:24;102.20;;;39.40;;
49392;SDS011;35268;42.642;23.308;2024-01-15T09:45:50;96.72;;;38.00;;
49392;SDS011;35268;42.642;23.308;2024-01-15T09:48:16;94.72;;;33.85;;
49392;SDS011;35268;42.642;23.308;2024-01-15T09:50:42;81.65;;;32.05;;
49392;SDS011;35268;42.642;23.308;2024-01-15T09:53:08;75.95;;;30.27;;
49392;SDS011;35268;42.642;23.308;2024-01-15T09:55:35;71.63;;;27.75;;
49392;SDS011;35268;42.642;23.308;2024-01-15T09:58:03;50.25;;;22.08;;
49392;SDS011;35268;42.642;23.308;2024-01-15T10:00:29;48.35;;;21.98;;
49392;SDS011;35268;42.642;23.308;2024-01-15T10:02:56;49.60;;;21.02;;
49392;SDS011;35268;42.642;23.308;2024-01-15T10:05:22;72.65;;;23.95;;
49392;SDS011;35268;42.642;23.308;2024-01-15T10:07:47;57.70;;;23.67;;
49392;SDS011;35268;42.642;23.308;2024-01-15T10:10:16;64.43;;;25.95;;
49392;SDS011;35268;42.642;23.308;2024-01-15T10:12:42;60.53;;;25.95;;
49392;SDS011;35268;42.642;23.308;2024-01-15T10:15:11;77.75;;;28.90;;
49392;SDS011;35268;42.642;23.308;2024-01-15T10:17:38;64.75;;;27.45;;
49392;SDS011;35268;42.642;23.308;2024-01-15T10:20:07;72.45;;;30.50;;
49392;SDS011;35268;42.642;23.308;2024-01-15T10:22:35;66.22;;;29.85;;
49392;SDS011;35268;42.642;23.308;2024-01-15T10:25:03;76.72;;;29.13;;
49392;SDS011;35268;42.642;23.308;2024-01-15T10:27:29;67.80;;;28.38;;
49392;SDS011;35268;42.642;23.308;2024-01-15T10:29:54;72.22;;;28.05;;
49392;SDS011;35268;42.642;23.308;2024-01-15T10:32:25;72.38;;;31.77;;
49392;SDS011;35268;42.642;23.308;2024-01-15T10:34:52;67.95;;;30.88;;
49392;SDS011;35268;42.642;23.308;2024-01-15T10:37:18;79.65;;;31.90;;
49392;SDS011;35268;42.642;23.308;2024-01-15T10:39:44;74.50;;;32.22;;
49392;SDS011;35268;42.642;23.308;2024-01-15T10:42:11;78.70;;;35.22;;
49392;SDS011;35268;42.642;23.308;2024-01-15T10:44:36;96.40;;;41.42;;
49392;SDS011;35268;42.642;23.308;2024-01-15T10:47:02;102.50;;;42.90;;
49392;SDS011;35268;42.642;23.308;2024-01-15T10:49:29;99.45;;;41.22;;
49392;SDS011;35268;42.642;23.308;2024-01-15T10:51:55;97.00;;;40.75;;
49392;SDS011;35268;42.642;23.308;2024-01-15T10:54:21;91.60;;;38.58;;
49392;SDS011;35268;42.642;23.308;2024-01-15T10:56:49;96.53;;;39.33;;
49392;SDS011;35268;42.642;23.308;2024-01-15T10:59:16;79.50;;;36.42;;
49392;SDS011;35268;42.642;23.308;2024-01-15T11:01:44;88.47;;;37.88;;
49392;SDS011;35268;42.642;23.308;2024-01-15T11:04:11;91.32;;;37.97;;
49392;SDS011;35268;42.642;23.308;2024-01-15T11:06:41;86.97;;;36.92;;
49392;SDS011;35268;42.642;23.308;2024-01-15T11:09:09;81.32;;;36.08;;
49392;SDS011;35268;42.642;23.308;2024-01-15T11:11:35;71.00;;;32.85;;
49392;SDS011;35268;42.642;23.308;2024-01-15T11:14:02;77.38;;;33.40;;
49392;SDS011;35268;42.642;23.308;2024-01-15T11:16:47;73.40;;;31.20;;
49392;SDS011;35268;42.642;23.308;2024-01-15T11:19:24;76.47;;;31.42;;
49392;SDS011;35268;42.642;23.308;2024-01-15T11:21:50;80.75;;;30.02;;
49392;SDS011;35268;42.642;23.308;2024-01-15T11:24:33;73.45;;;29.98;;
49392;SDS011;35268;42.642;23.308;2024-01-15T11:27:01;61.42;;;29.83;;
49392;SDS011;35268;42.642;23.308;2024-01-15T11:34:21;63.47;;;27.30;;
49392;SDS011;35268;42.642;23.308;2024-01-15T11:37:17;57.55;;;26.70;;
49392;SDS011;35268;42.642;23.308;2024-01-15T11:39:43;60.78;;;25.88;;
49392;SDS011;35268;42.642;23.308;2024-01-15T11:42:10;64.18;;;27.40;;
49392;SDS011;35268;42.642;23.308;2024-01-15T11:44:37;54.40;;;24.88;;
49392;SDS011;35268;42.642;23.308;2024-01-15T11:47:03;57.85;;;26.38;;
49392;SDS011;35268;42.642;23.308;2024-01-15T11:52:18;58.72;;;26.77;;
49392;SDS011;35268;42.642;23.308;2024-01-15T11:55:46;61.92;;;26.73;;
49392;SDS011;35268;42.642;23.308;2024-01-15T11:57:56;64.78;;;26.02;;
49392;SDS011;35268;42.642;23.308;2024-01-15T12:00:25;57.28;;;24.80;;
49392;SDS011;35268;42.642;23.308;2024-01-15T12:02:51;60.90;;;25.73;;
49392;SDS011;35268;42.642;23.308;2024-01-15T12:05:16;59.13;;;24.48;;
49392;SDS011;35268;42.642;23.308;2024-01-15T12:07:44;45.75;;;22.48;;
49392;SDS011;35268;42.642;23.308;2024-01-15T12:10:15;60.10;;;24.55;;
49392;SDS011;35268;42.642;23.308;2024-01-15T12:13:00;57.72;;;23.83;;
49392;SDS011;35268;42.642;23.308;2024-01-15T12:15:38;70.65;;;28.35;;
49392;SDS011;35268;42.642;23.308;2024-01-15T12:18:08;56.53;;;23.38;;
49392;SDS011;35268;42.642;23.308;2024-01-15T12:20:35;54.72;;;25.20;;
49392;SDS011;35268;42.642;23.308;2024-01-15T12:23:01;61.28;;;23.67;;
49392;SDS011;35268;42.642;23.308;2024-01-15T12:28:50;62.90;;;22.73;;
49392;SDS011;35268;42.642;23.308;2024-01-15T12:31:16;60.42;;;22.88;;
49392;SDS011;35268;42.642;23.308;2024-01-15T12:33:41;54.63;;;24.85;;
49392;SDS011;35268;42.642;23.308;2024-01-15T12:36:07;54.72;;;23.23;;
49392;SDS011;35268;42.642;23.308;2024-01-15T12:38:32;58.17;;;24.25;;
49392;SDS011;35268;42.642;23.308;2024-01-15T12:40:59;59.70;;;21.80;;
49392;SDS011;35268;42.642;23.308;2024-01-15T12:43:26;52.53;;;20.55;;
49392;SDS011;35268;42.642;23.308;2024-01-15T12:45:51;41.97;;;19.08;;
49392;SDS011;35268;42.642;23.308;2024-01-15T12:48:17;47.47;;;20.25;;
49392;SDS011;35268;42.642;23.308;2024-01-15T12:50:42;44.42;;;19.77;;
49392;SDS011;35268;42.642;23.308;2024-01-15T12:53:08;54.33;;;21.25;;
49392;SDS011;35268;42.642;23.308;2024-01-15T12:55:33;46.63;;;21.25;;
49392;SDS011;35268;42.642;23.308;2024-01-15T12:58:14;53.78;;;21.85;;
49392;SDS011;35268;42.642;23.308;2024-01-15T13:00:40;47.33;;;19.30;;
49392;SDS011;35268;42.642;23.308;2024-01-15T13:03:05;53.53;;;20.02;;
49392;SDS011;35268;42.642;23.308;2024-01-15T13:05:32;48.92;;;19.33;;
49392;SDS011;35268;42.642;23.308;2024-01-15T13:07:59;41.97;;;18.85;;
49392;SDS011;35268;42.642;23.308;2024-01-15T13:10:24;46.83;;;21.23;;
49392;SDS011;35268;42.642;23.308;2024-01-15T13:12:50;55.22;;;21.40;;
49392;SDS011;35268;42.642;23.308;2024-01-15T13:15:16;54.17;;;21.85;;
49392;SDS011;35268;42.642;23.308;2024-01-15T13:17:41;45.42;;;21.13;;
49392;SDS011;35268;42.642;23.308;2024-01-15T13:20:07;51.10;;;19.95;;
49392;SDS011;35268;42.642;23.308;2024-01-15T13:22:33;42.05;;;19.42;;
49392;SDS011;35268;42.642;23.308;2024-01-15T13:24:59;51.28;;;21.60;;
49392;SDS011;35268;42.642;23.308;2024-01-15T13:27:25;40.00;;;18.10;;
49392;SDS011;35268;42.642;23.308;2024-01-15T13:29:50;49.30;;;18.65;;
49392;SDS011;35268;42.642;23.308;2024-01-15T13:32:17;45.13;;;20.13;;
49392;SDS011;35268;42.642;23.308;2024-01-15T13:34:49;46.83;;;20.10;;
49392;SDS011;35268;42.642;23.308;2024-01-15T13:37:14;52.08;;;23.00;;
49392;SDS011;35268;42.642;23.308;2024-01-15T13:39:40;51.35;;;21.85;;
49392;SDS011;35268;42.642;23.308;2024-01-15T13:42:05;58.25;;;23.98;;
49392;SDS011;35268;42.642;23.308;2024-01-15T13:44:30;59.35;;;23.85;;
49392;SDS011;35268;42.642;23.308;2024-01-15T13:46:56;63.15;;;22.55;;
49392;SDS011;35268;42.642;23.308;2024-01-15T13:49:22;53.50;;;22.25;;
49392;SDS011;35268;42.642;23.308;2024-01-15T13:51:48;56.67;;;22.38;;
49392;SDS011;35268;42.642;23.308;2024-01-15T13:54:14;66.07;;;21.83;;
49392;SDS011;35268;42.642;23.308;2024-01-15T13:56:40;55.85;;;22.88;;
49392;SDS011;35268;42.642;23.308;2024-01-15T13:59:06;57.03;;;24.90;;
49392;SDS011;35268;42.642;23.308;2024-01-15T14:01:32;48.65;;;22.35;;
49392;SDS011;35268;42.642;23.308;2024-01-15T14:03:58;67.88;;;25.05;;
49392;SDS011;35268;42.642;23.308;2024-01-15T14:06:24;66.28;;;27.95;;
49392;SDS011;35268;42.642;23.308;2024-01-15T14:08:50;72.63;;;27.52;;
49392;SDS011;35268;42.642;23.308;2024-01-15T14:11:15;72.57;;;26.60;;
49392;SDS011;35268;42.642;23.308;2024-01-15T14:13:40;65.97;;;26.25;;